Wetterdaten: aktuell Montag, 11.04.2022 04:25
Datum Zeit Temperatur Luftfeuchte Luftdruck Regen Windgeschw. Windrichtung Windrichtung Taupunkt
11.04.2022 04:25 -2,6 C 75 % 1017 hPa 0,0 l/m 0,0 km/h NO 45 -6,4 C
11.04.2022 03:29 -1,7 C 76 % 1017 hPa 0,0 l/m 0,0 km/h NO 45 -5,4 C
11.04.2022 02:34 -1,1 C 63 % 1017 hPa 0,0 l/m 0,0 km/h NO 45 -7,2 C
11.04.2022 01:40 -1,1 C 63 % 1017 hPa 0,0 l/m 0,0 km/h NO 45 -7,2 C
11.04.2022 00:45 -1,1 C 63 % 1017 hPa 0,0 l/m 0,0 km/h NO 45 -7,2 C
10.04.2022 23:49 -1,1 C 63 % 1017 hPa 0,0 l/m 0,0 km/h NO 45 -7,2 C
10.04.2022 22:54 -1,1 C 63 % 1016 hPa 0,0 l/m 0,0 km/h NO 45 -7,2 C
10.04.2022 22:00 -1,1 C 63 % 1016 hPa 0,0 l/m 0,0 km/h NO 45 -7,2 C
10.04.2022 21:05 5,1 C 50 % 1016 hPa 0,0 l/m 0,0 km/h NO 45 -4,4 C
10.04.2022 20:09 5,1 C 50 % 1015 hPa 0,0 l/m 0,0 km/h NO 45 -4,4 C
10.04.2022 19:14 5,1 C 50 % 1015 hPa 0,0 l/m 0,0 km/h S-SO 150 -4,4 C
10.04.2022 18:19 5,1 C 50 % 1015 hPa 0,0 l/m 0,0 km/h S-SO 165 -4,4 C
10.04.2022 17:25 5,1 C 50 % 1014 hPa 0,0 l/m 0,0 km/h S-SO67.5 165 -4,4 C
10.04.2022 16:30 4,3 C 50 % 1014 hPa 0,0 l/m 4,0 km/h O-SO22.5 115 -5,2 C
10.04.2022 15:34 3,5 C 50 % 1014 hPa 0,0 l/m 0,0 km/h SO67.5 140 -5,9 C
10.04.2022 14:39 3,6 C 50 % 1014 hPa 0,0 l/m 0,2 km/h NO67.5 45 -5,8 C
10.04.2022 13:44 2,8 C 50 % 1014 hPa 0,0 l/m 3,3 km/h NO45 55 -6,6 C
10.04.2022 12:49 2,5 C 60 % 1014 hPa 0,0 l/m 1,1 km/h NO67.5 55 -4,5 C
10.04.2022 11:54 3,0 C 70 % 1013 hPa 0,0 l/m 0,0 km/h S-SW22.5 205 -1,9 C
10.04.2022 10:59 1,3 C 67 % 1014 hPa 0,0 l/m 0,8 km/h S-SO67.5 150 -4,1 C
10.04.2022 10:04 3,2 C 59 % 1013 hPa 0,0 l/m 0,0 km/h SO22.5 135 -4,0 C
10.04.2022 09:09 1,6 C 67 % 1013 hPa 0,0 l/m 0,0 km/h S67.5 170 -3,9 C
10.04.2022 08:15 -1,2 C 78 % 1013 hPa 0,0 l/m 0,0 km/h N 355 -4,5 C
10.04.2022 07:19 -3,2 C 81 % 1013 hPa 0,0 l/m 0,0 km/h N 355 -6,0 C
10.04.2022 06:24 -4,2 C 80 % 1012 hPa 0,0 l/m 0,0 km/h N 355 -7,1 C
10.04.2022 05:29 -3,9 C 79 % 1012 hPa 0,0 l/m 0,0 km/h N 355 -7,0 C
10.04.2022 05:04 -3,8 C 79 % 1011 hPa 0,0 l/m 0,0 km/h N 355 -6,9 C
_ Min-Zeit 06:09 10:24 05:04 - 05:04 - - 06:09
Minimum _ -4,2 C 50 % 1011 hPa - 0,0 km/h - - -7,3 C
_ Max-Zeit 16:45 07:04 22:14 05:04 17:35 - - 11:49
Maximum _ 5,1 C 81 % 1017 hPa 0,0 l/m 22,0 km/h
S-SO
- - -1,9 C
Durchschnitt _ 1,3 C 62 % 1015 hPa #0,0 l/m 0,5 km/h NO - -5,5 C